createdAt,value
2017-05-22T00:01:31.770Z,3.35
2017-05-22T00:04:00.140Z,3.18
2017-05-22T00:06:28.433Z,3.52
2017-05-22T00:08:56.716Z,3.87
2017-05-22T00:11:25.022Z,3.32
2017-05-22T00:13:53.298Z,3.10
2017-05-22T00:16:21.603Z,3.33
2017-05-22T00:18:49.895Z,3.38
2017-05-22T00:21:18.678Z,2.93
2017-05-22T00:23:46.975Z,3.28
2017-05-22T00:26:16.509Z,3.75
2017-05-22T00:28:46.047Z,3.68
2017-05-22T00:31:15.597Z,3.78
2017-05-22T00:33:45.687Z,3.52
2017-05-22T00:36:15.382Z,3.40
2017-05-22T00:38:45.080Z,3.60
2017-05-22T00:41:13.471Z,3.73
2017-05-22T00:43:41.752Z,3.15
2017-05-22T00:46:10.106Z,3.58
2017-05-22T00:48:39.281Z,3.40
2017-05-22T00:51:07.563Z,3.73
2017-05-22T00:53:35.909Z,4.28
2017-05-22T00:56:04.185Z,3.88
2017-05-22T00:58:32.471Z,4.57
2017-05-22T01:01:00.824Z,3.72
2017-05-22T01:03:29.088Z,4.45
2017-05-22T01:05:57.375Z,3.92
2017-05-22T01:08:25.696Z,3.43
2017-05-22T01:10:53.967Z,4.23
2017-05-22T01:13:22.071Z,4.00
2017-05-22T01:15:50.387Z,3.65
2017-05-22T01:18:17.907Z,3.60
2017-05-22T01:20:46.220Z,3.77
2017-05-22T01:23:14.559Z,3.97
2017-05-22T01:25:42.836Z,3.75
2017-05-22T01:28:11.167Z,4.05
2017-05-22T01:30:39.460Z,4.88
2017-05-22T01:33:07.795Z,4.07
2017-05-22T01:35:36.107Z,4.05
2017-05-22T01:38:04.956Z,4.33
2017-05-22T01:40:33.290Z,4.58
2017-05-22T01:43:01.617Z,4.00
2017-05-22T01:45:29.894Z,4.05
2017-05-22T01:47:58.840Z,4.35
2017-05-22T01:50:27.126Z,4.57
2017-05-22T01:52:55.407Z,3.57
2017-05-22T01:55:23.675Z,4.20
2017-05-22T01:57:51.204Z,5.47
2017-05-22T02:00:19.513Z,3.73
2017-05-22T02:02:47.793Z,4.70
2017-05-22T02:05:16.124Z,4.10
2017-05-22T02:07:44.405Z,4.20
2017-05-22T02:10:12.708Z,4.30
2017-05-22T02:12:41.036Z,4.92
2017-05-22T02:15:10.388Z,4.50
2017-05-22T02:17:38.653Z,4.07
2017-05-22T02:20:06.161Z,3.57
2017-05-22T02:22:34.899Z,3.45
2017-05-22T02:25:03.254Z,4.48
2017-05-22T02:27:30.780Z,4.07
2017-05-22T02:29:59.094Z,5.00
2017-05-22T02:32:27.405Z,4.83
2017-05-22T02:34:55.719Z,3.72
2017-05-22T02:37:24.032Z,3.73
2017-05-22T02:39:52.320Z,3.62
2017-05-22T02:42:20.611Z,4.65
2017-05-22T02:44:48.139Z,4.72
2017-05-22T02:47:16.455Z,4.63
2017-05-22T02:49:44.738Z,3.70
2017-05-22T02:52:13.042Z,3.65
2017-05-22T02:54:41.334Z,3.75
2017-05-22T02:57:09.614Z,4.77
2017-05-22T02:59:37.895Z,4.70
2017-05-22T03:02:06.190Z,3.67
2017-05-22T03:04:34.494Z,4.33
2017-05-22T03:07:03.555Z,3.55
2017-05-22T03:09:31.901Z,3.42
2017-05-22T03:12:00.190Z,4.28
2017-05-22T03:14:28.485Z,3.68
2017-05-22T03:16:56.790Z,3.50
2017-05-22T03:19:25.087Z,4.22
2017-05-22T03:21:53.359Z,3.88
2017-05-22T03:24:21.715Z,4.02
2017-05-22T03:26:50.038Z,3.67
2017-05-22T03:29:17.559Z,4.90
2017-05-22T03:31:45.847Z,6.78
2017-05-22T03:34:13.362Z,3.47
2017-05-22T03:36:41.635Z,4.30
2017-05-22T03:39:09.963Z,4.13
2017-05-22T03:41:38.263Z,4.05
2017-05-22T03:44:06.632Z,3.80
2017-05-22T03:46:34.950Z,4.17
2017-05-22T03:49:03.261Z,4.65
2017-05-22T03:51:31.848Z,5.02
2017-05-22T03:54:00.131Z,4.23
2017-05-22T03:56:28.433Z,4.90
2017-05-22T03:58:56.739Z,4.03
2017-05-22T04:01:25.078Z,4.02
2017-05-22T04:03:52.648Z,4.88
2017-05-22T04:06:20.940Z,4.73
2017-05-22T04:08:49.229Z,4.53
2017-05-22T04:11:17.535Z,5.28
2017-05-22T04:13:45.898Z,5.42
2017-05-22T04:16:13.441Z,5.33
2017-05-22T04:18:41.808Z,5.50
2017-05-22T04:21:10.110Z,4.83
2017-05-22T04:23:38.403Z,6.22
2017-05-22T04:26:05.910Z,5.67
2017-05-22T04:28:33.873Z,6.22
2017-05-22T04:31:02.188Z,5.73
2017-05-22T04:33:30.487Z,5.95
2017-05-22T04:35:58.772Z,5.17
2017-05-22T04:38:27.125Z,5.02
2017-05-22T04:40:55.432Z,6.85
2017-05-22T04:43:23.780Z,5.43
2017-05-22T04:45:52.079Z,5.03
2017-05-22T04:48:20.351Z,6.77
2017-05-22T04:50:48.668Z,6.42
2017-05-22T04:53:16.228Z,6.03
2017-05-22T04:55:44.582Z,7.00
2017-05-22T04:58:12.126Z,7.93
2017-05-22T05:00:40.441Z,5.57
2017-05-22T05:03:11.156Z,7.55
2017-05-22T05:05:39.444Z,6.57
2017-05-22T05:08:07.009Z,7.13
2017-05-22T05:10:34.510Z,7.70
2017-05-22T05:13:02.800Z,7.33
2017-05-22T05:15:30.316Z,7.05
2017-05-22T05:17:58.842Z,7.90
2017-05-22T05:20:27.127Z,8.63
2017-05-22T05:22:55.409Z,7.32
2017-05-22T05:25:23.681Z,7.05
2017-05-22T05:27:51.978Z,7.35
2017-05-22T05:30:20.277Z,7.57
2017-05-22T05:32:48.576Z,7.57
2017-05-22T05:35:16.888Z,7.42
2017-05-22T05:37:45.174Z,6.48
2017-05-22T05:40:13.491Z,7.32
2017-05-22T05:42:41.826Z,6.32
2017-05-22T05:45:10.105Z,7.32
2017-05-22T05:47:38.398Z,6.55
2017-05-22T05:50:06.719Z,7.22
2017-05-22T05:52:34.226Z,8.50
2017-05-22T05:55:02.558Z,7.45
2017-05-22T05:57:30.849Z,7.97
2017-05-22T05:59:59.165Z,6.97
2017-05-22T06:02:27.453Z,6.83
2017-05-22T06:04:55.744Z,7.78
2017-05-22T06:07:24.088Z,6.97
2017-05-22T06:09:52.348Z,7.07
2017-05-22T06:14:58.234Z,7.17
2017-05-22T06:17:26.548Z,6.45
2017-05-22T06:19:54.825Z,6.48
2017-05-22T06:22:22.360Z,6.92
2017-05-22T06:24:50.648Z,7.60
2017-05-22T06:27:19.478Z,7.75
2017-05-22T06:29:47.908Z,6.32
2017-05-22T06:32:16.182Z,6.12
2017-05-22T06:34:44.520Z,6.47
2017-05-22T06:37:12.822Z,6.68
2017-05-22T06:39:41.115Z,6.53
2017-05-22T06:42:09.985Z,5.97
2017-05-22T06:44:38.275Z,5.85
2017-05-22T06:47:05.851Z,7.50
2017-05-22T06:49:34.206Z,6.98
2017-05-22T06:52:02.523Z,6.43
2017-05-22T06:54:30.802Z,5.73
2017-05-22T06:56:59.200Z,6.48
2017-05-22T06:59:27.526Z,6.07
2017-05-22T07:01:56.699Z,6.43
2017-05-22T07:04:25.515Z,5.87
2017-05-22T07:06:53.795Z,5.45
2017-05-22T07:09:22.112Z,6.37
2017-05-22T07:11:50.510Z,6.73
2017-05-22T07:14:18.797Z,6.03
2017-05-22T07:16:47.090Z,5.97
2017-05-22T07:19:15.393Z,5.92
2017-05-22T07:21:43.688Z,5.60
2017-05-22T07:24:11.972Z,7.00
2017-05-22T07:26:40.800Z,5.53
2017-05-22T07:29:09.105Z,6.38
2017-05-22T07:31:36.642Z,6.27
2017-05-22T07:34:04.922Z,4.77
2017-05-22T07:36:33.196Z,5.68
2017-05-22T07:39:01.475Z,4.32
2017-05-22T07:41:29.769Z,5.10
2017-05-22T07:43:58.064Z,5.02
2017-05-22T07:46:26.335Z,5.48
2017-05-22T07:48:54.615Z,6.00
2017-05-22T07:51:23.703Z,6.00
2017-05-22T07:53:51.988Z,5.43
2017-05-22T07:56:20.282Z,6.05
2017-05-22T07:58:48.576Z,5.25
2017-05-22T08:01:16.877Z,4.57
2017-05-22T08:03:45.172Z,5.33
2017-05-22T08:06:13.501Z,5.70
2017-05-22T08:08:42.041Z,5.92
2017-05-22T08:11:10.323Z,6.68
2017-05-22T08:13:38.614Z,25.55
2017-05-22T08:16:06.902Z,5.05
2017-05-22T08:18:34.406Z,5.67
2017-05-22T08:21:02.708Z,4.62
2017-05-22T08:23:30.980Z,4.73
2017-05-22T08:25:59.265Z,4.43
2017-05-22T08:28:27.583Z,4.12
2017-05-22T08:30:55.863Z,4.35
2017-05-22T08:33:24.158Z,4.85
2017-05-22T08:35:52.431Z,4.98
2017-05-22T08:38:20.731Z,5.87
2017-05-22T08:40:49.021Z,5.40
2017-05-22T08:43:17.354Z,5.48
2017-05-22T08:45:45.660Z,4.62
2017-05-22T08:48:13.955Z,5.27
2017-05-22T08:50:43.115Z,5.78
2017-05-22T08:53:11.416Z,5.22
2017-05-22T08:55:39.695Z,3.60
2017-05-22T08:58:08.011Z,4.15
2017-05-22T09:00:36.355Z,4.42
2017-05-22T09:03:04.628Z,4.48
2017-05-22T09:05:33.688Z,4.35
2017-05-22T09:08:02.007Z,4.10
2017-05-22T09:10:30.302Z,4.13
2017-05-22T09:12:58.622Z,4.02
2017-05-22T09:15:26.907Z,6.33
2017-05-22T09:17:55.214Z,3.92
2017-05-22T09:20:23.516Z,4.22
2017-05-22T09:22:52.216Z,3.82
2017-05-22T09:25:20.558Z,5.03
2017-05-22T09:27:48.901Z,3.57
2017-05-22T09:30:17.204Z,3.15
2017-05-22T09:32:45.500Z,3.50
2017-05-22T09:35:13.801Z,3.90
2017-05-22T09:37:42.487Z,3.37
2017-05-22T09:40:10.800Z,3.07
2017-05-22T09:42:39.105Z,3.18
2017-05-22T09:45:07.407Z,3.80
2017-05-22T09:47:35.690Z,4.13
2017-05-22T09:50:03.974Z,3.62
2017-05-22T09:52:33.232Z,3.72
2017-05-22T09:55:02.296Z,3.05
2017-05-22T09:57:31.020Z,2.22
2017-05-22T09:59:59.295Z,2.82
2017-05-22T10:02:27.636Z,2.48
2017-05-22T10:04:56.409Z,2.55
2017-05-22T10:07:24.695Z,2.50
2017-05-22T10:09:52.957Z,2.52
2017-05-22T10:12:21.228Z,3.68
2017-05-22T10:14:49.514Z,3.22
2017-05-22T10:17:17.791Z,3.77
2017-05-22T10:19:46.199Z,2.43
2017-05-22T10:22:14.510Z,3.48
2017-05-22T10:24:43.299Z,2.63
2017-05-22T10:27:11.569Z,2.88
2017-05-22T10:29:39.851Z,2.72
2017-05-22T10:32:08.151Z,2.72
2017-05-22T10:34:36.506Z,2.85
2017-05-22T10:37:04.779Z,2.77
2017-05-22T10:39:33.828Z,3.03
2017-05-22T10:42:02.206Z,2.48
2017-05-22T10:44:30.512Z,2.90
2017-05-22T10:46:58.821Z,2.48
2017-05-22T10:49:27.122Z,2.12
2017-05-22T10:51:55.467Z,2.90
2017-05-22T10:54:23.751Z,3.60
2017-05-22T10:56:53.073Z,2.48
2017-05-22T10:59:21.379Z,3.02
2017-05-22T11:01:49.667Z,8.52
2017-05-22T11:04:17.361Z,2.90
2017-05-22T11:06:45.711Z,3.83
2017-05-22T11:09:14.042Z,2.88
2017-05-22T11:11:42.339Z,2.75
2017-05-22T11:14:10.640Z,3.80
2017-05-22T11:16:38.972Z,2.95
2017-05-22T11:19:07.255Z,2.50
2017-05-22T11:21:35.590Z,3.05
2017-05-22T11:24:03.893Z,2.25
2017-05-22T11:26:32.192Z,2.68
2017-05-22T11:29:00.489Z,2.62
2017-05-22T11:31:28.883Z,2.46
2017-05-22T11:33:57.199Z,2.98
2017-05-22T11:36:25.473Z,2.06
2017-05-22T11:38:53.746Z,2.18
2017-05-22T11:41:22.070Z,2.44
2017-05-22T11:43:50.384Z,1.70
2017-05-22T11:46:18.674Z,3.38
2017-05-22T11:48:46.972Z,2.26
2017-05-22T11:51:15.253Z,2.66
2017-05-22T11:53:43.571Z,1.72
2017-05-22T11:56:11.859Z,2.48
2017-05-22T11:58:40.166Z,2.10
2017-05-22T12:01:08.502Z,2.46
2017-05-22T12:03:36.822Z,2.24
2017-05-22T12:06:05.120Z,2.14
2017-05-22T12:08:33.438Z,2.84
2017-05-22T12:11:01.718Z,3.14
2017-05-22T12:13:30.082Z,2.80
2017-05-22T12:15:58.389Z,2.70
2017-05-22T12:18:26.678Z,3.82
2017-05-22T12:20:55.000Z,2.90
2017-05-22T12:23:23.291Z,2.30
2017-05-22T12:25:50.876Z,2.02
2017-05-22T12:28:19.196Z,4.42
2017-05-22T12:30:47.524Z,2.48
2017-05-22T12:33:15.817Z,1.88
2017-05-22T12:35:44.087Z,1.86
2017-05-22T12:38:12.373Z,2.02
2017-05-22T12:40:40.663Z,2.68
2017-05-22T12:43:08.975Z,1.86
2017-05-22T12:45:37.266Z,1.62
2017-05-22T12:48:05.605Z,1.60
2017-05-22T12:50:34.042Z,2.10
2017-05-22T12:53:01.563Z,2.26
2017-05-22T12:55:29.828Z,1.90
2017-05-22T12:57:57.616Z,2.00
2017-05-22T13:00:25.180Z,1.72
2017-05-22T13:02:54.268Z,1.88
2017-05-22T13:05:22.540Z,2.10
2017-05-22T13:07:50.818Z,2.16
2017-05-22T13:10:19.199Z,2.38
2017-05-22T13:12:47.515Z,1.98
2017-05-22T13:15:16.651Z,2.03
2017-05-22T13:17:44.961Z,1.95
2017-05-22T13:20:13.277Z,2.20
2017-05-22T13:22:41.569Z,1.78
2017-05-22T13:25:09.872Z,1.68
2017-05-22T13:27:37.580Z,1.90
2017-05-22T13:30:05.130Z,1.85
2017-05-22T13:32:32.694Z,1.85
2017-05-22T13:35:01.711Z,2.45
2017-05-22T13:37:29.293Z,2.03
2017-05-22T13:39:57.582Z,2.00
2017-05-22T13:42:25.101Z,2.03
2017-05-22T13:44:53.447Z,2.10
2017-05-22T13:47:20.974Z,1.75
2017-05-22T13:49:49.426Z,2.77
2017-05-22T13:52:17.888Z,2.12
2017-05-22T13:54:46.183Z,2.28
2017-05-22T13:57:14.370Z,2.18
2017-05-22T13:59:42.671Z,1.92
2017-05-22T14:02:11.661Z,1.82
2017-05-22T14:04:39.942Z,1.68
2017-05-22T14:07:08.260Z,1.80
2017-05-22T14:09:36.827Z,2.53
2017-05-22T14:12:05.831Z,3.30
2017-05-22T14:14:33.666Z,1.98
2017-05-22T14:17:02.013Z,2.73
2017-05-22T14:19:30.449Z,2.25
2017-05-22T14:21:58.853Z,2.80
2017-05-22T14:24:27.179Z,2.03
2017-05-22T14:26:55.471Z,2.30
2017-05-22T14:29:23.773Z,2.32
2017-05-22T14:31:52.067Z,9.83
2017-05-22T14:34:20.365Z,2.38
2017-05-22T14:36:48.674Z,2.30
2017-05-22T14:39:16.961Z,2.55
2017-05-22T14:41:44.513Z,2.35
2017-05-22T14:44:13.005Z,2.28
2017-05-22T14:46:41.313Z,2.13
2017-05-22T14:49:09.678Z,2.05
2017-05-22T14:51:37.993Z,2.25
2017-05-22T14:54:06.320Z,1.98
2017-05-22T14:56:35.486Z,2.70
2017-05-22T14:59:03.867Z,2.80
2017-05-22T15:01:32.185Z,2.38
2017-05-22T15:04:00.538Z,2.20
2017-05-22T15:06:29.105Z,2.22
2017-05-22T15:08:57.416Z,2.28
2017-05-22T15:11:26.543Z,4.77
2017-05-22T15:13:54.927Z,2.28
2017-05-22T15:16:23.228Z,2.50
2017-05-22T15:18:50.748Z,2.47
2017-05-22T15:21:19.207Z,2.45
2017-05-22T15:23:47.827Z,2.73
2017-05-22T15:26:16.116Z,2.50
2017-05-22T15:28:44.461Z,2.55
2017-05-22T15:31:12.771Z,4.38
2017-05-22T15:33:41.241Z,2.60
2017-05-22T15:36:09.539Z,2.70
2017-05-22T15:38:37.823Z,2.47
2017-05-22T15:41:06.328Z,2.82
2017-05-22T15:43:34.663Z,2.62
2017-05-22T15:46:02.181Z,2.73
2017-05-22T15:48:30.519Z,2.72
2017-05-22T15:50:58.909Z,2.77
2017-05-22T15:53:27.202Z,2.08
2017-05-22T15:55:55.562Z,2.65
2017-05-22T15:58:23.883Z,2.02
2017-05-22T16:00:52.232Z,1.93
2017-05-22T16:03:20.553Z,2.70
2017-05-22T16:05:48.922Z,2.63
2017-05-22T16:08:17.230Z,2.70
2017-05-22T16:10:45.567Z,2.62
2017-05-22T16:13:13.871Z,2.32
2017-05-22T16:15:42.150Z,2.38
2017-05-22T16:18:10.457Z,2.43
2017-05-22T16:20:38.873Z,2.02
2017-05-22T16:23:07.047Z,2.30
2017-05-22T16:25:34.661Z,2.05
2017-05-22T16:28:03.014Z,2.80
2017-05-22T16:30:31.319Z,3.00
2017-05-22T16:32:59.645Z,2.27
2017-05-22T16:35:27.915Z,2.30
2017-05-22T16:37:56.208Z,2.03
2017-05-22T16:40:24.523Z,2.25
2017-05-22T16:42:52.836Z,3.52
2017-05-22T16:45:21.174Z,2.78
2017-05-22T16:47:48.739Z,3.20
2017-05-22T16:50:17.089Z,2.10
2017-05-22T16:52:45.379Z,2.80
2017-05-22T16:55:13.725Z,2.93
2017-05-22T16:57:41.279Z,2.75
2017-05-22T17:00:09.699Z,3.17
2017-05-22T17:02:38.164Z,2.48
2017-05-22T17:05:06.644Z,2.12
2017-05-22T17:07:34.149Z,3.77
2017-05-22T17:10:03.078Z,2.90
2017-05-22T17:12:30.619Z,2.55
2017-05-22T17:14:58.939Z,2.70
2017-05-22T17:17:28.029Z,3.00
2017-05-22T17:19:55.735Z,2.82
2017-05-22T17:22:24.106Z,3.75
2017-05-22T17:24:51.819Z,3.68
2017-05-22T17:27:20.104Z,2.62
2017-05-22T17:29:48.399Z,2.87
2017-05-22T17:32:16.710Z,2.83
2017-05-22T17:34:44.242Z,3.38
2017-05-22T17:37:12.527Z,2.85
2017-05-22T17:39:40.827Z,3.17
2017-05-22T17:42:09.141Z,3.73
2017-05-22T17:44:37.436Z,3.42
2017-05-22T17:47:05.755Z,2.87
2017-05-22T17:49:34.258Z,3.95
2017-05-22T17:52:02.865Z,3.77
2017-05-22T17:54:31.140Z,3.55
2017-05-22T17:56:59.427Z,3.75
2017-05-22T17:59:27.759Z,3.85
2017-05-22T18:01:56.201Z,3.15
2017-05-22T18:04:24.513Z,3.23
2017-05-22T18:06:52.820Z,3.47
2017-05-22T18:09:21.129Z,3.98
2017-05-22T18:11:49.414Z,3.77
2017-05-22T18:14:17.723Z,2.98
2017-05-22T18:16:46.019Z,3.88
2017-05-22T18:19:14.319Z,3.43
2017-05-22T18:21:42.611Z,3.55
2017-05-22T18:24:10.945Z,4.08
2017-05-22T18:26:40.388Z,5.63
2017-05-22T18:29:08.667Z,4.10
2017-05-22T18:31:37.161Z,3.80
2017-05-22T18:34:05.492Z,8.50
2017-05-22T18:36:33.876Z,4.40
2017-05-22T18:39:02.177Z,3.62
2017-05-22T18:41:30.497Z,3.83
2017-05-22T18:43:58.860Z,3.75
2017-05-22T18:46:27.230Z,3.37
2017-05-22T18:48:55.539Z,5.00
2017-05-22T18:51:23.893Z,3.90
2017-05-22T18:53:52.190Z,4.85
2017-05-22T18:56:20.512Z,4.30
2017-05-22T18:58:48.814Z,4.45
2017-05-22T19:01:17.129Z,5.17
2017-05-22T19:03:45.475Z,5.50
2017-05-22T19:06:14.065Z,5.13
2017-05-22T19:08:42.393Z,4.38
2017-05-22T19:11:10.690Z,4.68
2017-05-22T19:13:39.031Z,5.77
2017-05-22T19:16:07.346Z,5.20
2017-05-22T19:18:35.646Z,5.70
2017-05-22T19:21:03.939Z,5.40
2017-05-22T19:23:32.216Z,5.33
2017-05-22T19:26:00.607Z,4.78
2017-05-22T19:28:30.875Z,3.98
2017-05-22T19:30:59.227Z,3.97
2017-05-22T19:33:27.553Z,5.55
2017-05-22T19:35:55.876Z,5.28
2017-05-22T19:38:24.201Z,4.77
2017-05-22T19:40:52.530Z,5.07
2017-05-22T19:43:20.810Z,5.27
2017-05-22T19:45:49.123Z,6.47
2017-05-22T19:48:17.422Z,5.37
2017-05-22T19:50:45.711Z,4.68
2017-05-22T19:53:14.026Z,4.85
2017-05-22T19:55:41.540Z,4.93
2017-05-22T19:58:09.829Z,5.35
2017-05-22T20:00:38.124Z,4.62
2017-05-22T20:03:06.444Z,4.58
2017-05-22T20:05:34.751Z,3.83
2017-05-22T20:08:03.055Z,5.02
2017-05-22T20:10:31.358Z,6.52
2017-05-22T20:12:59.643Z,5.12
2017-05-22T20:15:27.930Z,4.65
2017-05-22T20:17:56.237Z,8.13
2017-05-22T20:20:24.516Z,5.30
2017-05-22T20:22:52.831Z,5.45
2017-05-22T20:25:21.138Z,5.45
2017-05-22T20:27:49.447Z,5.50
2017-05-22T20:30:17.723Z,4.68
2017-05-22T20:32:46.025Z,5.17
2017-05-22T20:35:14.358Z,4.40
2017-05-22T20:37:42.634Z,4.77
2017-05-22T20:40:10.974Z,5.02
2017-05-22T20:42:39.279Z,5.47
2017-05-22T20:45:07.612Z,4.35
2017-05-22T20:47:35.909Z,4.52
2017-05-22T20:50:04.234Z,4.85
2017-05-22T20:52:32.556Z,4.75
2017-05-22T20:55:00.884Z,4.73
2017-05-22T20:57:29.227Z,5.08
2017-05-22T20:59:57.501Z,5.73
2017-05-22T21:02:25.825Z,5.20
2017-05-22T21:04:54.142Z,5.15
2017-05-22T21:07:22.483Z,5.58
2017-05-22T21:09:50.785Z,6.47
2017-05-22T21:12:19.060Z,5.48
2017-05-22T21:14:47.356Z,5.40
2017-05-22T21:17:15.658Z,6.27
2017-05-22T21:19:44.849Z,5.30
2017-05-22T21:22:13.298Z,5.92
2017-05-22T21:24:41.600Z,7.90
2017-05-22T21:27:09.941Z,7.88
2017-05-22T21:29:38.284Z,8.07
2017-05-22T21:32:06.555Z,6.33
2017-05-22T21:34:34.893Z,5.72
2017-05-22T21:37:03.190Z,5.52
2017-05-22T21:39:31.495Z,7.63
2017-05-22T21:41:59.787Z,4.85
2017-05-22T21:44:28.059Z,5.35
2017-05-22T21:46:56.362Z,4.62
2017-05-22T21:49:25.724Z,4.60
2017-05-22T21:51:54.010Z,4.65
2017-05-22T21:54:22.328Z,4.85
2017-05-22T21:56:50.600Z,5.48
2017-05-22T21:59:18.880Z,5.55
2017-05-22T22:01:47.192Z,5.42
2017-05-22T22:04:15.467Z,4.77
2017-05-22T22:06:43.846Z,4.95
2017-05-22T22:09:12.139Z,5.67
2017-05-22T22:11:40.445Z,4.85
2017-05-22T22:14:08.778Z,5.92
2017-05-22T22:16:37.062Z,6.05
2017-05-22T22:19:05.344Z,8.28
2017-05-22T22:21:37.199Z,5.42
2017-05-22T22:24:05.486Z,6.13
2017-05-22T22:26:33.967Z,5.50
2017-05-22T22:29:03.387Z,5.15
2017-05-22T22:31:32.271Z,5.20
2017-05-22T22:34:00.565Z,5.17
2017-05-22T22:36:28.875Z,5.60
2017-05-22T22:38:57.155Z,4.95
2017-05-22T22:41:25.445Z,5.85
2017-05-22T22:43:53.717Z,6.58
2017-05-22T22:46:21.992Z,6.45
2017-05-22T22:48:50.287Z,4.97
2017-05-22T22:51:17.821Z,5.57
2017-05-22T22:53:46.099Z,5.75
2017-05-22T22:56:14.399Z,5.43
2017-05-22T22:58:42.679Z,5.18
2017-05-22T23:01:10.983Z,5.27
2017-05-22T23:03:39.273Z,4.62
2017-05-22T23:06:07.567Z,5.70
2017-05-22T23:08:35.944Z,5.40
2017-05-22T23:11:04.259Z,5.88
2017-05-22T23:13:32.575Z,5.15
2017-05-22T23:16:00.845Z,6.43
2017-05-22T23:18:29.142Z,5.73
2017-05-22T23:20:57.446Z,6.20
2017-05-22T23:23:25.763Z,5.35
2017-05-22T23:25:54.033Z,6.30
2017-05-22T23:28:22.346Z,5.57
2017-05-22T23:30:50.672Z,5.85
2017-05-22T23:33:18.983Z,5.38
2017-05-22T23:35:47.319Z,5.52
2017-05-22T23:38:15.613Z,6.27
2017-05-22T23:40:43.977Z,5.00
2017-05-22T23:43:12.266Z,5.17
2017-05-22T23:45:40.616Z,6.38
2017-05-22T23:48:08.894Z,6.68
2017-05-22T23:50:37.200Z,5.32
2017-05-22T23:53:05.460Z,5.08
2017-05-22T23:55:33.735Z,5.97
2017-05-22T23:58:02.015Z,5.52
